To NAV CANADA Home Page Login to a new session Search on AWWS site Feedback and Comments Disclaimer Vers la page française équivalente Tips FAQ What's new on the site To the Forecasts and Observations / NOTAM section To "File a Flight Plan" website Publications and other links Update of the User's profile FIC Telephone Numbers My Weather Data Folder Route Weather Data Regional Weather Data Local Weather Data To the Forecasts and Observations / NOTAM section
Request Generated 08/04/2015 at 13:48:46 UTC . Weather information available at that time is displayed.

METAR/TAF

HALIFAX/SHEARWATER/NS    

METAR CYAW 041300Z 20008KT 3/4SM BR VV001 21/21 A2994 RMK FG8 DA1145FT VIS VRB 1/2-1 SLP139=
SPECI CYAW 041226Z 19007KT 3/4SM BR VV001 21/20 A2995 RMK FG8 DA1107FT SLP141=
METAR CYAW 041200Z 19007KT 0SM FG VV000 20/20 A2995 RMK FG8 DA1043FT SLP142=
SPECI CYAW 041144Z 19005KT 0SM FG VV000 20/20 A2995 RMK FG8 DA1082FT SLP141=
SPECI CYAW 041130Z 19006KT 1/4SM FG VV001 20/20 A2995 RMK FG8 DA1080FT SLP141=
METAR CYAW 041100Z 21005KT 1 1/2SM BR OVC003 21/20 A2995 RMK SF8 DA1105FT FST OBS SLP143=

TAF CYAW 041331Z 0414/0502 20006KT 1/2SM FG VV001 TEMPO 0414/0416 2SM
BR OVC003
FM041600 20008KT 2SM BR OVC003 TEMPO 0416/0418 6SM BR OVC006
FM041800 19012KT P6SM BKN010 TEMPO 0418/0422 BKN006
FM042200 20012KT 1SM -SHRA BR OVC003 TEMPO 0422/0502 3SM BR
OVC006 PROB30 0422/0502 2SM TSRA BR BKN003CB
RMK NXT FCST BY 042000Z=
Your time UTC time
Weather data provided by Environment Canada and NAV CANADA